Time;durP1;ratioP1;P1;durP2;ratioP2;P2;SDS_P1;SDS_P2;PMS_P1;PMS_P2;Temp;Humidity;BMP_temperature;BMP_pressure;BME280_temperature;BME280_humidity;BME280_pressure;Samples;Min_cycle;Max_cycle;Signal;HPM_P1;HPM_P2
2021/03/07 00:00:27;;;;;;;45.25;27.95;;;8.10;99.90;;;;;;5015464;28;20045;-71
2021/03/07 00:02:53;;;;;;;45.35;27.90;;;8.10;99.90;;;;;;5015307;28;20026;-71
2021/03/07 00:05:19;;;;;;;44.20;28.30;;;8.10;99.90;;;;;;5014387;28;20426;-71
2021/03/07 00:07:47;;;;;;;39.95;26.85;;;8.10;99.90;;;;;;5012054;28;20399;-71
2021/03/07 00:10:14;;;;;;;43.58;28.38;;;8.20;99.90;;;;;;4998005;28;20027;-71
2021/03/07 00:12:41;;;;;;;40.65;24.88;;;8.10;99.90;;;;;;5015199;28;20034;-71
2021/03/07 00:15:09;;;;;;;41.60;25.40;;;8.10;99.90;;;;;;5015164;28;20045;-71
2021/03/07 00:17:35;;;;;;;40.30;25.73;;;8.10;99.90;;;;;;5014838;28;20026;-71
2021/03/07 00:20:03;;;;;;;44.53;26.02;;;8.10;99.90;;;;;;5020746;28;20349;-71
2021/03/07 00:22:28;;;;;;;37.55;25.42;;;8.10;99.90;;;;;;5032928;28;20037;-71
2021/03/07 00:24:54;;;;;;;41.83;26.27;;;8.10;99.90;;;;;;5014978;28;20026;-71
2021/03/07 00:27:20;;;;;;;40.33;26.35;;;8.10;99.90;;;;;;5015113;28;20117;-71
2021/03/07 00:29:46;;;;;;;40.15;25.40;;;8.10;99.90;;;;;;5015842;28;20490;-71
2021/03/07 00:32:11;;;;;;;35.42;24.77;;;8.10;99.90;;;;;;5014773;28;20030;-71
2021/03/07 00:34:38;;;;;;;39.97;24.05;;;8.10;99.90;;;;;;5014647;28;20065;-71
2021/03/07 00:37:03;;;;;;;37.63;23.45;;;8.10;99.90;;;;;;5014477;28;21447;-71
2021/03/07 00:39:31;;;;;;;34.72;22.45;;;8.10;99.90;;;;;;5015030;28;20083;-71
2021/03/07 00:41:58;;;;;;;34.40;22.08;;;8.10;99.90;;;;;;5014685;28;20073;-71
2021/03/07 00:44:24;;;;;;;36.15;22.90;;;8.10;99.90;;;;;;5014315;28;20010;-71
2021/03/07 00:46:50;;;;;;;37.85;23.85;;;8.10;99.90;;;;;;5014568;28;20097;-71
2021/03/07 00:49:20;;;;;;;38.47;23.90;;;8.00;99.90;;;;;;5014029;28;20037;-71
2021/03/07 00:51:46;;;;;;;35.55;23.45;;;8.00;99.90;;;;;;5014127;28;20065;-71
2021/03/07 00:54:12;;;;;;;37.05;24.92;;;8.00;99.90;;;;;;5013981;28;20483;-71
2021/03/07 00:56:38;;;;;;;38.97;24.50;;;8.00;99.90;;;;;;5014507;28;20060;-71
2021/03/07 00:59:04;;;;;;;40.13;24.30;;;8.00;99.90;;;;;;5012574;28;20464;-71
2021/03/07 01:01:30;;;;;;;39.80;25.88;;;8.00;99.90;;;;;;5014351;28;20109;-71
2021/03/07 01:03:55;;;;;;;42.42;26.80;;;7.90;99.90;;;;;;5020048;28;20030;-71
2021/03/07 01:06:21;;;;;;;35.90;23.02;;;8.00;99.90;;;;;;5034046;28;20065;-71
2021/03/07 01:08:47;;;;;;;34.33;23.20;;;7.80;99.90;;;;;;5010856;28;20165;-71
2021/03/07 01:11:13;;;;;;;38.85;24.15;;;7.80;99.90;;;;;;4994405;28;20057;-71
2021/03/07 01:13:39;;;;;;;37.97;22.75;;;7.80;99.90;;;;;;4995016;28;20110;-71
2021/03/07 01:16:05;;;;;;;39.28;24.20;;;7.80;99.90;;;;;;5030593;28;20039;-71
2021/03/07 01:18:31;;;;;;;37.90;23.70;;;7.80;99.90;;;;;;5021348;28;20030;-71
2021/03/07 01:20:57;;;;;;;40.08;24.38;;;7.80;99.90;;;;;;5018215;28;20405;-71
2021/03/07 01:23:23;;;;;;;36.38;23.95;;;7.90;99.90;;;;;;5014131;28;20025;-71
2021/03/07 01:25:49;;;;;;;34.47;22.20;;;7.90;99.90;;;;;;5020328;28;20013;-71
2021/03/07 01:28:15;;;;;;;38.55;23.10;;;7.90;99.90;;;;;;5032317;28;20072;-71
2021/03/07 01:30:43;;;;;;;35.75;22.20;;;7.90;99.90;;;;;;5013540;28;20386;-71
2021/03/07 01:33:09;;;;;;;34.70;23.60;;;7.90;99.90;;;;;;5013598;28;20030;-71
2021/03/07 01:35:35;;;;;;;35.60;22.20;;;7.80;99.90;;;;;;5023050;28;20081;-71
2021/03/07 01:38:01;;;;;;;38.92;22.52;;;7.80;99.90;;;;;;5031851;28;20128;-71
2021/03/07 01:40:33;;;;;;;37.72;22.70;;;7.80;99.90;;;;;;5033304;28;20430;-71
2021/03/07 01:43:01;;;;;;;36.67;22.95;;;7.90;99.90;;;;;;5033310;28;20032;-71
2021/03/07 01:45:29;;;;;;;33.92;21.52;;;7.90;99.90;;;;;;5020818;28;20080;-71
2021/03/07 01:47:58;;;;;;;37.47;21.90;;;7.90;99.90;;;;;;5013441;28;20029;-71
2021/03/07 01:50:26;;;;;;;35.25;22.35;;;7.90;99.90;;;;;;5013411;28;20025;-71
2021/03/07 01:52:52;;;;;;;37.78;22.30;;;7.90;99.90;;;;;;5013539;28;20389;-71
2021/03/07 01:55:21;;;;;;;32.72;21.23;;;7.90;99.90;;;;;;5013271;28;20444;-71
2021/03/07 01:57:48;;;;;;;31.80;21.08;;;7.80;99.90;;;;;;5013268;28;20096;-71
2021/03/07 02:00:15;;;;;;;34.00;21.98;;;7.80;99.90;;;;;;5022143;28;20050;-71
2021/03/07 02:02:41;;;;;;;35.35;22.40;;;7.70;99.90;;;;;;5012347;28;20084;-71
2021/03/07 02:05:10;;;;;;;35.75;21.65;;;7.70;99.90;;;;;;5013169;28;20065;-71
2021/03/07 02:07:36;;;;;;;39.30;21.65;;;7.80;99.90;;;;;;5021153;28;20026;-71
2021/03/07 02:10:04;;;;;;;39.75;21.38;;;7.70;99.90;;;;;;4993624;28;20034;-71
2021/03/07 02:12:31;;;;;;;30.90;19.55;;;7.70;99.90;;;;;;5012594;28;20034;-72
2021/03/07 02:14:59;;;;;;;38.95;22.05;;;7.80;99.90;;;;;;5015483;28;20017;-71
2021/03/07 02:17:25;;;;;;;39.35;22.92;;;7.80;99.90;;;;;;5030909;28;20069;-71
2021/03/07 02:19:52;;;;;;;36.03;21.33;;;7.80;99.90;;;;;;5027528;28;20100;-71
2021/03/07 02:22:27;;;;;;;37.35;21.60;;;7.80;99.90;;;;;;5012477;28;20058;-72
2021/03/07 02:24:53;;;;;;;36.20;21.88;;;7.70;99.90;;;;;;5012835;28;20025;-71
2021/03/07 02:27:19;;;;;;;33.60;21.65;;;7.70;99.90;;;;;;5012596;28;20033;-71
2021/03/07 02:29:46;;;;;;;34.67;20.65;;;7.70;99.90;;;;;;5012487;28;20041;-71
2021/03/07 02:32:18;;;;;;;37.67;21.45;;;7.70;99.90;;;;;;5012830;28;20030;-71
2021/03/07 02:35:00;;;;;;;34.75;20.98;;;7.70;99.90;;;;;;5012776;28;20076;-71
2021/03/07 02:37:27;;;;;;;35.42;21.45;;;7.70;99.90;;;;;;5012486;28;20111;-71
2021/03/07 02:39:53;;;;;;;34.20;21.58;;;7.70;99.90;;;;;;5012673;28;20022;-71
2021/03/07 02:42:22;;;;;;;33.20;21.13;;;7.70;99.90;;;;;;5026342;28;20029;-71
2021/03/07 02:45:13;;;;;;;36.53;21.17;;;7.70;99.90;;;;;;5014250;28;20386;-71
2021/03/07 02:47:43;;;;;;;35.85;23.23;;;7.70;99.90;;;;;;5012175;28;20022;-71
2021/03/07 02:50:11;;;;;;;37.20;23.15;;;7.70;99.90;;;;;;5012648;28;20030;-71
2021/03/07 02:52:40;;;;;;;39.70;23.20;;;7.70;99.90;;;;;;5011852;28;20034;-71
2021/03/07 02:55:07;;;;;;;38.33;21.95;;;7.70;99.90;;;;;;5012291;28;20037;-71
2021/03/07 02:57:35;;;;;;;38.78;22.27;;;7.70;99.90;;;;;;5012163;28;20030;-71
2021/03/07 03:00:03;;;;;;;37.45;22.15;;;7.80;99.90;;;;;;5012360;28;20037;-71
2021/03/07 03:02:30;;;;;;;40.97;23.63;;;7.60;99.90;;;;;;5012505;28;20045;-71
2021/03/07 03:04:58;;;;;;;38.15;23.23;;;7.60;99.90;;;;;;5012126;28;20010;-71
2021/03/07 03:07:26;;;;;;;35.97;22.48;;;7.50;99.90;;;;;;5012375;28;20061;-71
2021/03/07 03:09:54;;;;;;;36.80;22.27;;;7.60;99.90;;;;;;5012561;28;20068;-71
2021/03/07 03:12:21;;;;;;;43.47;23.63;;;7.60;99.90;;;;;;5011936;28;20037;-71
2021/03/07 03:14:47;;;;;;;40.08;23.77;;;7.60;99.90;;;;;;5014924;28;20501;-71
2021/03/07 03:17:15;;;;;;;36.72;22.02;;;7.60;99.90;;;;;;5016382;28;20057;-71
2021/03/07 03:19:44;;;;;;;41.97;25.38;;;7.60;99.90;;;;;;5015734;28;20077;-71
2021/03/07 03:22:12;;;;;;;45.22;23.70;;;7.60;99.90;;;;;;5016308;28;20026;-71
2021/03/07 03:24:38;;;;;;;37.20;21.90;;;7.60;99.90;;;;;;5016149;28;20113;-71
2021/03/07 03:27:05;;;;;;;38.15;24.08;;;7.60;99.90;;;;;;5015830;28;20030;-71
2021/03/07 03:29:32;;;;;;;39.40;23.38;;;7.60;99.90;;;;;;5015923;28;20030;-71
2021/03/07 03:31:59;;;;;;;33.15;22.20;;;7.60;99.90;;;;;;5016026;28;20037;-71
2021/03/07 03:34:25;;;;;;;38.40;24.38;;;7.50;99.90;;;;;;5015995;28;20041;-71
2021/03/07 03:36:51;;;;;;;40.05;23.33;;;7.50;99.90;;;;;;5015888;28;20060;-71
2021/03/07 03:39:23;;;;;;;42.75;24.85;;;7.60;99.90;;;;;;5016743;28;20487;-71
2021/03/07 03:41:55;;;;;;;45.08;25.13;;;7.60;99.90;;;;;;5021021;28;20445;-71
2021/03/07 03:44:25;;;;;;;41.85;22.63;;;7.50;99.90;;;;;;5023470;28;20024;-71
2021/03/07 03:46:53;;;;;;;39.97;24.40;;;7.60;99.90;;;;;;5014350;28;20026;-71
2021/03/07 03:49:34;;;;;;;44.88;23.67;;;7.60;99.90;;;;;;5015680;28;20073;-71
2021/03/07 03:52:09;;;;;;;41.17;24.05;;;7.50;99.90;;;;;;5015527;28;20076;-71
2021/03/07 03:54:49;;;;;;;41.38;23.25;;;7.60;99.90;;;;;;5015651;28;20120;-71
2021/03/07 03:57:18;;;;;;;42.10;22.77;;;7.50;99.90;;;;;;5015408;28;20022;-71
2021/03/07 03:59:46;;;;;;;43.05;25.10;;;7.60;99.90;;;;;;5026797;28;20041;-71
2021/03/07 04:02:12;;;;;;;45.40;24.85;;;7.60;99.90;;;;;;5033300;28;20021;-71
2021/03/07 04:04:39;;;;;;;39.60;23.23;;;7.60;99.90;;;;;;5019433;28;20087;-72
2021/03/07 04:07:06;;;;;;;44.90;25.30;;;7.60;99.90;;;;;;5015605;28;20026;-72
2021/03/07 04:09:35;;;;;;;43.03;24.17;;;7.60;99.90;;;;;;4998286;28;20046;-71
2021/03/07 04:12:01;;;;;;;39.40;24.38;;;7.60;99.90;;;;;;4995583;28;20026;-71
2021/03/07 04:14:28;;;;;;;43.70;26.33;;;7.60;99.90;;;;;;4999285;28;20092;-71
2021/03/07 04:16:55;;;;;;;42.53;24.60;;;7.50;99.90;;;;;;5023780;28;20018;-71
2021/03/07 04:19:23;;;;;;;41.33;23.92;;;7.50;99.90;;;;;;5015081;28;20057;-71
2021/03/07 04:21:49;;;;;;;42.00;24.52;;;7.60;99.90;;;;;;5015199;28;20022;-71
2021/03/07 04:24:15;;;;;;;37.63;24.15;;;7.60;99.90;;;;;;5032732;28;20371;-71
2021/03/07 04:26:41;;;;;;;39.90;23.58;;;7.50;99.90;;;;;;5015757;28;20021;-71
2021/03/07 04:29:09;;;;;;;41.83;25.08;;;7.50;99.90;;;;;;5014791;28;20049;-71
2021/03/07 04:31:35;;;;;;;39.55;23.10;;;7.50;99.90;;;;;;5014958;28;20497;-71
2021/03/07 04:34:01;;;;;;;43.50;25.23;;;7.50;99.90;;;;;;5030973;28;20465;-71
2021/03/07 04:36:28;;;;;;;42.55;25.38;;;7.50;99.90;;;;;;5015397;28;20061;-71
2021/03/07 04:38:55;;;;;;;42.33;24.42;;;7.50;99.90;;;;;;5014568;28;20046;-71
2021/03/07 04:41:21;;;;;;;42.85;25.05;;;7.50;99.90;;;;;;5014528;28;20018;-71
2021/03/07 04:43:49;;;;;;;39.72;23.70;;;7.50;99.90;;;;;;5014633;28;20449;-71
2021/03/07 04:46:18;;;;;;;38.45;24.80;;;7.50;99.90;;;;;;5017506;28;20113;-71
2021/03/07 04:48:43;;;;;;;37.13;23.95;;;7.40;99.90;;;;;;5014657;28;20030;-71
2021/03/07 04:51:09;;;;;;;40.83;24.70;;;7.40;99.90;;;;;;5014439;28;20034;-71
2021/03/07 04:53:35;;;;;;;36.97;24.83;;;7.40;99.90;;;;;;5027366;28;20096;-71
2021/03/07 04:56:01;;;;;;;39.30;24.95;;;7.40;99.90;;;;;;5034220;28;20722;-71
2021/03/07 04:58:27;;;;;;;42.13;24.95;;;7.40;99.90;;;;;;5032520;28;20029;-71
2021/03/07 05:00:53;;;;;;;35.95;24.25;;;7.40;99.90;;;;;;5033781;28;20067;-71
2021/03/07 05:03:18;;;;;;;44.63;24.55;;;7.40;99.90;;;;;;5033961;28;20033;-71
2021/03/07 05:05:44;;;;;;;35.70;24.90;;;7.40;99.90;;;;;;5032668;28;20030;-71
2021/03/07 05:08:10;;;;;;;42.45;23.98;;;7.40;99.90;;;;;;5011103;28;20033;-71
2021/03/07 05:10:35;;;;;;;37.38;24.02;;;7.40;99.90;;;;;;5003919;28;20029;-71
2021/03/07 05:13:01;;;;;;;33.38;24.50;;;7.50;99.90;;;;;;5014110;28;20618;-71
2021/03/07 05:15:27;;;;;;;40.22;24.80;;;7.50;99.90;;;;;;5022148;28;20544;-71
2021/03/07 05:17:53;;;;;;;41.80;25.48;;;7.50;99.90;;;;;;5033743;28;20497;-71
2021/03/07 05:20:18;;;;;;;39.47;24.80;;;7.40;99.90;;;;;;5033919;28;20112;-71
2021/03/07 05:22:44;;;;;;;42.85;26.73;;;7.30;99.90;;;;;;5032323;28;20105;-71
2021/03/07 05:25:10;;;;;;;42.35;26.25;;;7.30;99.90;;;;;;5033529;28;20052;-71
2021/03/07 05:27:36;;;;;;;36.95;24.27;;;7.40;99.90;;;;;;5033834;28;20032;-71
2021/03/07 05:30:02;;;;;;;38.38;24.42;;;7.40;99.90;;;;;;5016689;28;20538;-71
2021/03/07 05:32:28;;;;;;;38.83;25.05;;;7.40;99.90;;;;;;5017327;28;20040;-71
2021/03/07 05:34:53;;;;;;;35.63;22.85;;;7.30;99.90;;;;;;5021726;28;20025;-71
2021/03/07 05:37:19;;;;;;;37.35;23.92;;;7.30;99.90;;;;;;5013154;28;20088;-71
2021/03/07 05:39:45;;;;;;;39.20;24.38;;;7.30;99.90;;;;;;5013502;28;20498;-71
2021/03/07 05:42:11;;;;;;;35.17;22.45;;;7.30;99.90;;;;;;5012414;28;20359;-71
2021/03/07 05:44:39;;;;;;;38.80;24.58;;;7.30;99.90;;;;;;5013270;28;20057;-71
2021/03/07 05:47:05;;;;;;;37.72;24.38;;;7.30;99.90;;;;;;5012877;28;20024;-71
2021/03/07 05:49:31;;;;;;;41.72;24.88;;;7.30;99.90;;;;;;5013678;28;20104;-71
2021/03/07 05:51:58;;;;;;;46.65;24.42;;;7.30;99.90;;;;;;5013011;28;20038;-71
2021/03/07 05:54:24;;;;;;;37.75;24.05;;;7.20;99.90;;;;;;5013553;28;20021;-71
2021/03/07 05:56:51;;;;;;;38.33;26.02;;;7.20;99.90;;;;;;5012864;28;20038;-71
2021/03/07 05:59:17;;;;;;;42.78;25.40;;;7.20;99.90;;;;;;5013296;28;20112;-71
2021/03/07 06:01:43;;;;;;;38.67;24.77;;;7.30;99.90;;;;;;5021333;28;20026;-71
2021/03/07 06:04:09;;;;;;;39.40;24.33;;;7.30;99.90;;;;;;5019422;28;20030;-71
2021/03/07 06:06:35;;;;;;;36.20;24.02;;;7.30;99.90;;;;;;5012959;28;20053;-71
2021/03/07 06:09:20;;;;;;;50.50;27.08;;;7.40;99.90;;;;;;5017249;28;20167;-71
2021/03/07 06:11:47;;;;;;;46.22;29.65;;;7.40;99.90;;;;;;5016358;28;20042;-71
2021/03/07 06:14:24;;;;;;;166.27;105.03;;;7.50;99.90;;;;;;5012572;28;20026;-71
2021/03/07 06:17:06;;;;;;;62.95;41.63;;;7.50;99.90;;;;;;5012815;28;20033;-71
2021/03/07 06:19:54;;;;;;;45.70;28.73;;;7.40;99.90;;;;;;5024698;28;20121;-71
2021/03/07 06:22:20;;;;;;;39.33;23.95;;;7.40;99.90;;;;;;5013651;28;20041;-71
2021/03/07 06:24:46;;;;;;;38.92;23.85;;;7.40;99.90;;;;;;5021813;28;20033;-71
2021/03/07 06:27:14;;;;;;;35.28;22.23;;;7.40;99.90;;;;;;5010398;28;20022;-71
2021/03/07 06:29:56;;;;;;;38.95;25.00;;;7.40;99.90;;;;;;5011573;28;20025;-71
2021/03/07 06:32:27;;;;;;;37.70;24.42;;;7.30;99.90;;;;;;5008755;28;20045;-71
2021/03/07 06:34:54;;;;;;;37.33;23.88;;;7.30;99.90;;;;;;5011221;28;20053;-71
2021/03/07 06:37:20;;;;;;;33.10;23.58;;;7.40;99.90;;;;;;5010935;28;20041;-71
2021/03/07 06:39:47;;;;;;;41.80;24.25;;;7.40;99.90;;;;;;5011443;28;20036;-71
2021/03/07 06:42:13;;;;;;;38.65;24.30;;;7.40;99.90;;;;;;5010552;28;20030;-71
2021/03/07 06:44:54;;;;;;;40.88;24.85;;;7.40;99.90;;;;;;5011215;28;20109;-71
2021/03/07 06:47:20;;;;;;;33.83;22.38;;;7.40;99.90;;;;;;5011318;28;20041;-71
2021/03/07 06:49:46;;;;;;;40.35;25.00;;;7.40;99.90;;;;;;5010583;28;20025;-71
2021/03/07 06:52:17;;;;;;;42.85;24.67;;;7.30;99.90;;;;;;5010816;28;20022;-71
2021/03/07 06:55:01;;;;;;;39.53;24.65;;;7.30;99.90;;;;;;5007807;28;20575;-71
2021/03/07 06:57:27;;;;;;;32.03;23.30;;;7.30;99.90;;;;;;5011129;28;20444;-71
2021/03/07 06:59:53;;;;;;;37.15;23.58;;;7.40;99.90;;;;;;5011225;28;20045;-71
2021/03/07 07:02:19;;;;;;;40.03;24.25;;;7.40;99.90;;;;;;5010731;28;20038;-72
2021/03/07 07:04:45;;;;;;;36.47;23.83;;;7.40;99.90;;;;;;5010804;28;20517;-71
2021/03/07 07:07:16;;;;;;;36.17;25.38;;;7.40;99.90;;;;;;5010817;28;20018;-71
2021/03/07 07:09:45;;;;;;;39.75;25.92;;;7.40;99.90;;;;;;5011137;28;20085;-71
2021/03/07 07:12:25;;;;;;;39.70;24.10;;;7.40;99.90;;;;;;5013966;28;20030;-71
2021/03/07 07:15:03;;;;;;;41.72;24.98;;;7.50;99.90;;;;;;5039336;28;20038;-71
2021/03/07 07:17:29;;;;;;;38.30;24.85;;;7.40;99.90;;;;;;5016840;28;20132;-71
2021/03/07 07:19:59;;;;;;;37.58;24.58;;;7.50;99.90;;;;;;5022821;28;20030;-71
2021/03/07 07:22:25;;;;;;;40.78;25.13;;;7.50;99.90;;;;;;5012342;28;20029;-71
2021/03/07 07:24:50;;;;;;;41.17;25.52;;;7.50;99.90;;;;;;5021978;28;20052;-71
2021/03/07 07:27:16;;;;;;;33.75;24.15;;;7.50;99.90;;;;;;5022045;28;20047;-71
2021/03/07 07:29:42;;;;;;;36.55;24.73;;;7.50;99.90;;;;;;5021757;28;20024;-71
2021/03/07 07:32:12;;;;;;;36.75;24.60;;;7.60;99.90;;;;;;5017918;28;20405;-71
2021/03/07 07:34:43;;;;;;;39.53;24.45;;;7.70;99.90;;;;;;5014476;28;20029;-71
2021/03/07 07:37:23;;;;;;;44.50;24.85;;;7.70;99.90;;;;;;5021570;28;20040;-71
2021/03/07 07:39:54;;;;;;;38.05;23.50;;;7.70;99.90;;;;;;5011013;28;20037;-72
2021/03/07 07:42:29;;;;;;;34.15;24.10;;;7.70;99.90;;;;;;5026341;28;20028;-71
2021/03/07 07:44:57;;;;;;;40.55;24.25;;;7.70;99.90;;;;;;5024806;28;20022;-71
2021/03/07 07:47:24;;;;;;;39.90;24.27;;;7.70;99.90;;;;;;5013616;28;20022;-71
2021/03/07 07:49:53;;;;;;;41.08;24.05;;;7.70;99.90;;;;;;5010228;28;20014;-71
2021/03/07 07:52:25;;;;;;;47.03;24.23;;;7.70;99.90;;;;;;5010989;28;20096;-71
2021/03/07 07:54:55;;;;;;;35.53;24.90;;;7.80;99.90;;;;;;5011753;28;20030;-71
2021/03/07 07:57:35;;;;;;;37.15;24.02;;;7.70;99.90;;;;;;5015845;28;20037;-71
2021/03/07 08:00:04;;;;;;;40.67;25.02;;;7.70;99.90;;;;;;5026791;28;20034;-71
2021/03/07 08:02:42;;;;;;;40.42;23.52;;;7.80;99.90;;;;;;5033836;28;20101;-71
2021/03/07 08:05:20;;;;;;;34.88;24.05;;;7.90;99.90;;;;;;5035102;28;20025;-71
2021/03/07 08:07:59;;;;;;;36.60;23.45;;;7.90;99.90;;;;;;5028755;28;20030;-71
2021/03/07 08:10:47;;;;;;;37.92;24.58;;;7.90;99.90;;;;;;4995960;28;20027;-71
2021/03/07 08:13:36;;;;;;;37.80;23.30;;;7.90;99.90;;;;;;5007450;28;20037;-71
2021/03/07 08:16:05;;;;;;;42.55;24.75;;;7.90;99.90;;;;;;5017833;28;20029;-71
2021/03/07 08:18:56;;;;;;;40.80;24.40;;;8.00;99.90;;;;;;5014753;28;20494;-72
2021/03/07 08:21:23;;;;;;;43.53;25.60;;;8.00;99.90;;;;;;5003788;28;20041;-71
2021/03/07 08:24:05;;;;;;;45.55;24.70;;;8.20;99.90;;;;;;5015010;28;20057;-71
2021/03/07 08:26:44;;;;;;;34.95;22.30;;;8.00;99.90;;;;;;5014563;28;20018;-71
2021/03/07 08:29:48;;;;;;;37.40;24.10;;;8.10;99.90;;;;;;5014842;28;20048;-71
2021/03/07 08:32:37;;;;;;;41.08;23.90;;;8.20;99.90;;;;;;4973236;28;20502;-71
2021/03/07 08:35:21;;;;;;;35.38;23.15;;;8.30;99.90;;;;;;4973148;28;20027;-71
2021/03/07 08:38:11;;;;;;;40.00;25.35;;;8.30;99.90;;;;;;4973166;28;20046;-71
2021/03/07 08:40:39;;;;;;;37.40;22.77;;;8.30;99.90;;;;;;4972265;28;20117;-73
2021/03/07 08:43:25;;;;;;;35.78;21.80;;;8.30;99.90;;;;;;4973382;28;20055;-71
2021/03/07 08:46:08;;;;;;;38.78;23.30;;;8.40;99.90;;;;;;4969428;28;20112;-71
2021/03/07 08:48:34;;;;;;;34.65;23.08;;;8.40;99.90;;;;;;4985286;28;20030;-71
2021/03/07 08:51:02;;;;;;;35.53;21.02;;;8.40;99.90;;;;;;4971737;28;20041;-71
2021/03/07 08:53:31;;;;;;;34.08;22.02;;;8.40;99.90;;;;;;4966645;28;20034;-71
2021/03/07 08:55:56;;;;;;;32.58;22.42;;;8.40;99.90;;;;;;4971539;28;20035;-71
2021/03/07 08:58:23;;;;;;;31.40;20.98;;;8.40;99.90;;;;;;4971825;28;20023;-71
2021/03/07 09:00:50;;;;;;;32.63;22.08;;;8.50;99.90;;;;;;4963023;28;20576;-71
2021/03/07 09:03:18;;;;;;;30.92;21.55;;;8.50;99.90;;;;;;4993297;28;20042;-71
2021/03/07 09:05:44;;;;;;;28.48;20.08;;;8.50;99.50;;;;;;5012246;28;20014;-71
2021/03/07 09:08:10;;;;;;;31.85;20.98;;;8.40;99.40;;;;;;5012741;28;20340;-71
2021/03/07 09:10:37;;;;;;;32.53;20.50;;;8.40;99.90;;;;;;5012462;28;20113;-71
2021/03/07 09:13:11;;;;;;;30.88;19.00;;;8.60;99.90;;;;;;5012805;28;20466;-71
2021/03/07 09:15:39;;;;;;;27.35;19.23;;;8.50;99.20;;;;;;5011375;28;20038;-71
2021/03/07 09:18:06;;;;;;;27.80;20.10;;;8.40;99.70;;;;;;5013018;28;20053;-71
2021/03/07 09:20:43;;;;;;;24.85;16.55;;;8.60;99.90;;;;;;5013055;28;20030;-71
2021/03/07 09:23:30;;;;;;;31.27;17.83;;;8.60;98.40;;;;;;5012259;28;20054;-71
2021/03/07 09:25:57;;;;;;;29.20;16.80;;;8.60;99.20;;;;;;5011803;28;20026;-71
2021/03/07 09:28:35;;;;;;;25.65;17.40;;;8.70;99.60;;;;;;5012884;28;20055;-71
2021/03/07 09:31:03;;;;;;;25.55;17.52;;;8.70;98.50;;;;;;5007952;28;20482;-71
2021/03/07 09:33:29;;;;;;;25.45;15.85;;;8.60;98.90;;;;;;5012930;28;20875;-71
2021/03/07 09:36:06;;;;;;;28.83;15.65;;;8.60;99.10;;;;;;5010679;28;20054;-71
2021/03/07 09:38:55;;;;;;;19.17;12.27;;;8.60;98.00;;;;;;5012416;28;20038;-71
2021/03/07 09:41:31;;;;;;;19.40;10.73;;;8.50;96.90;;;;;;5006655;28;20474;-71
2021/03/07 09:44:17;;;;;;;17.10;11.57;;;8.60;98.10;;;;;;5012287;28;20054;-71
2021/03/07 09:46:44;;;;;;;19.15;13.75;;;8.70;98.50;;;;;;5010642;28;20152;-71
2021/03/07 09:49:16;;;;;;;20.65;11.75;;;8.80;98.40;;;;;;5012233;28;20481;-71
2021/03/07 09:51:44;;;;;;;14.98;11.70;;;8.90;97.80;;;;;;5012171;28;20022;-71
2021/03/07 09:54:12;;;;;;;19.60;12.25;;;9.10;97.50;;;;;;5012322;28;20053;-71
2021/03/07 09:56:39;;;;;;;16.63;11.38;;;9.10;97.20;;;;;;5011554;28;20026;-71
2021/03/07 09:59:18;;;;;;;19.08;12.50;;;9.10;97.50;;;;;;5010922;28;20053;-71
2021/03/07 10:01:51;;;;;;;15.60;11.73;;;9.20;96.60;;;;;;5014146;28;20053;-70
2021/03/07 10:04:51;;;;;;;18.77;11.38;;;9.20;96.50;;;;;;5010050;28;20026;-71
2021/03/07 10:07:18;;;;;;;17.70;10.68;;;9.20;96.20;;;;;;5017588;28;20022;-71
2021/03/07 10:10:00;;;;;;;18.88;11.60;;;9.10;96.50;;;;;;5010496;28;20022;-71
2021/03/07 10:12:44;;;;;;;16.23;12.52;;;9.20;95.60;;;;;;5010477;28;20124;-70
2021/03/07 10:15:30;;;;;;;18.65;12.85;;;9.20;96.40;;;;;;5011580;28;20033;-71
2021/03/07 10:18:17;;;;;;;24.27;10.88;;;9.30;96.60;;;;;;5010309;28;20022;-71
2021/03/07 10:20:49;;;;;;;18.17;11.57;;;9.40;96.10;;;;;;5008275;28;20037;-71
2021/03/07 10:23:15;;;;;;;17.27;11.63;;;9.50;96.80;;;;;;5011400;28;20033;-71
2021/03/07 10:25:51;;;;;;;21.00;13.98;;;9.50;95.60;;;;;;5005400;28;20077;-71
2021/03/07 10:28:31;;;;;;;23.90;13.63;;;9.40;96.20;;;;;;5003564;28;20053;-71
2021/03/07 10:31:16;;;;;;;21.55;14.15;;;9.30;95.90;;;;;;5011380;28;20105;-71
2021/03/07 10:33:42;;;;;;;20.92;13.18;;;9.30;96.50;;;;;;5011031;28;20112;-71
2021/03/07 10:36:10;;;;;;;24.17;13.55;;;9.30;95.50;;;;;;5013814;28;20414;-71
2021/03/07 10:38:38;;;;;;;25.05;13.50;;;9.20;96.00;;;;;;5010766;28;20038;-71
2021/03/07 10:41:32;;;;;;;23.55;13.20;;;9.10;94.80;;;;;;5010409;28;20032;-71
2021/03/07 10:44:06;;;;;;;25.58;13.65;;;9.10;96.90;;;;;;5009230;28;20551;-71
2021/03/07 10:46:37;;;;;;;22.73;12.90;;;9.20;95.10;;;;;;5011446;28;20018;-71
2021/03/07 10:49:07;;;;;;;17.80;11.93;;;9.10;94.60;;;;;;5012839;28;20030;-71
2021/03/07 10:51:34;;;;;;;23.00;12.52;;;9.20;96.00;;;;;;5009993;28;20549;-71
2021/03/07 10:54:00;;;;;;;22.77;13.50;;;9.20;95.90;;;;;;5008153;28;20030;-71
2021/03/07 10:56:40;;;;;;;22.85;13.40;;;9.30;94.70;;;;;;5006513;28;20402;-71
2021/03/07 10:59:07;;;;;;;19.08;13.23;;;9.10;94.10;;;;;;5010317;28;20030;-71
2021/03/07 11:01:33;;;;;;;19.58;12.23;;;9.20;95.80;;;;;;5031562;28;20721;-71
2021/03/07 11:03:59;;;;;;;20.85;11.75;;;9.40;95.10;;;;;;5013956;28;20370;-71
2021/03/07 11:06:25;;;;;;;19.23;12.02;;;9.50;94.80;;;;;;5010308;28;20034;-71
2021/03/07 11:08:52;;;;;;;21.13;12.20;;;9.50;95.00;;;;;;5008970;28;20022;-71
2021/03/07 11:11:18;;;;;;;25.63;12.18;;;9.40;94.30;;;;;;5009658;28;20070;-71
2021/03/07 11:13:45;;;;;;;19.92;11.95;;;9.30;93.30;;;;;;5009077;28;20022;-71
2021/03/07 11:16:10;;;;;;;13.90;9.75;;;9.40;94.30;;;;;;5010369;28;20030;-71
2021/03/07 11:18:37;;;;;;;17.15;10.40;;;9.30;93.30;;;;;;5011954;28;20025;-71
2021/03/07 11:21:05;;;;;;;18.60;10.48;;;9.40;94.50;;;;;;5016256;28;20537;-71
2021/03/07 11:23:33;;;;;;;19.70;11.30;;;9.50;94.20;;;;;;5007632;28;20030;-71
2021/03/07 11:26:01;;;;;;;15.95;10.10;;;9.60;94.30;;;;;;5011425;28;20022;-71
2021/03/07 11:28:27;;;;;;;14.00;9.25;;;9.60;93.50;;;;;;5010126;28;20026;-71
2021/03/07 11:30:53;;;;;;;14.82;9.88;;;9.60;92.60;;;;;;5008345;28;20022;-71
2021/03/07 11:33:19;;;;;;;18.10;10.20;;;9.60;93.30;;;;;;5010458;28;20149;-71
2021/03/07 11:35:45;;;;;;;16.75;10.63;;;9.40;92.70;;;;;;5012786;28;20057;-71
2021/03/07 11:38:11;;;;;;;16.50;10.80;;;9.40;92.40;;;;;;5013635;28;20563;-71
2021/03/07 11:40:38;;;;;;;21.13;11.27;;;9.60;92.70;;;;;;5007242;28;20026;-71
2021/03/07 11:43:04;;;;;;;16.02;9.05;;;9.60;93.00;;;;;;5010653;28;20064;-71
2021/03/07 11:45:34;;;;;;;20.65;9.80;;;9.60;92.00;;;;;;5008038;28;20036;-71
2021/03/07 11:47:59;;;;;;;20.00;10.30;;;9.60;92.70;;;;;;5012986;28;20024;-71
2021/03/07 11:50:25;;;;;;;18.50;10.77;;;9.60;90.80;;;;;;5028243;28;20037;-71
2021/03/07 11:52:51;;;;;;;22.42;11.95;;;9.50;91.70;;;;;;5013373;28;20022;-71
2021/03/07 11:55:17;;;;;;;23.38;12.27;;;9.40;91.40;;;;;;5008797;28;20030;-71
2021/03/07 11:57:42;;;;;;;20.48;11.57;;;9.20;91.20;;;;;;5014145;28;20033;-71
2021/03/07 12:00:09;;;;;;;23.65;12.60;;;9.30;91.80;;;;;;5018234;28;20029;-71
2021/03/07 12:02:35;;;;;;;23.30;12.52;;;9.30;91.90;;;;;;5025236;28;20080;-71
2021/03/07 12:05:02;;;;;;;19.35;11.73;;;9.30;92.10;;;;;;5018086;28;20064;-71
2021/03/07 12:07:28;;;;;;;19.40;11.55;;;9.40;91.80;;;;;;5012672;28;20058;-71
2021/03/07 12:09:54;;;;;;;23.02;12.68;;;9.50;91.60;;;;;;5019032;28;20057;-70
2021/03/07 12:12:19;;;;;;;23.88;12.45;;;9.50;91.80;;;;;;5013338;28;20030;-71
2021/03/07 12:14:45;;;;;;;19.27;12.15;;;9.50;90.40;;;;;;5014335;28;20034;-71
2021/03/07 12:17:11;;;;;;;19.48;12.52;;;9.70;92.50;;;;;;5019530;28;20077;-72
2021/03/07 12:19:37;;;;;;;23.23;12.55;;;9.70;91.80;;;;;;5013799;28;20470;-71
2021/03/07 12:22:04;;;;;;;25.17;13.65;;;9.70;90.20;;;;;;5013759;28;20105;-71
2021/03/07 12:24:29;;;;;;;24.52;14.30;;;9.50;91.10;;;;;;5004783;28;20041;-71
2021/03/07 12:27:08;;;;;;;23.40;13.38;;;9.50;92.70;;;;;;5012147;28;20482;-71
2021/03/07 12:29:34;;;;;;;22.63;13.77;;;9.40;91.90;;;;;;5013305;28;20114;-71
2021/03/07 12:32:01;;;;;;;24.90;14.15;;;9.50;92.30;;;;;;5013690;28;20057;-71
2021/03/07 12:34:27;;;;;;;23.30;13.20;;;9.50;91.50;;;;;;5013348;28;20486;-71
2021/03/07 12:36:53;;;;;;;28.02;14.23;;;9.40;91.70;;;;;;5014611;28;20028;-71
2021/03/07 12:39:20;;;;;;;23.20;13.32;;;9.40;91.10;;;;;;5004539;28;20049;-71
2021/03/07 12:41:46;;;;;;;21.17;12.68;;;9.40;92.10;;;;;;5013238;28;20046;-72
2021/03/07 12:44:12;;;;;;;21.23;12.88;;;9.40;91.00;;;;;;5017687;28;20033;-71
2021/03/07 12:46:38;;;;;;;21.90;13.02;;;9.30;91.60;;;;;;5016968;28;20026;-71
2021/03/07 12:49:05;;;;;;;22.83;14.13;;;9.30;93.00;;;;;;5010952;28;20525;-71